Time,TemperatureF,DewpointF,PressureIn,WindDirection,WindDirectionDegrees,WindSpeedMPH,WindSpeedGustMPH,Humidity,HourlyPrecipIn,Conditions,Clouds,dailyrainin,SoftwareType,DateUTC
2013-04-25 00:10:00,45.4,34.0,30.19,SW,218,1.0,5.0,64,0.00,,---,0.00,VWS V14.01,2013-04-25 05:10:00,
2013-04-25 00:25:00,46.2,34.3,30.20,SW,231,1.0,9.0,63,0.00,,---,0.00,VWS V14.01,2013-04-25 05:25:00,
2013-04-25 00:40:00,46.0,34.1,30.21,WNW,292,2.0,14.0,63,0.00,,---,0.00,VWS V14.01,2013-04-25 05:40:00,
2013-04-25 00:55:00,45.7,34.6,30.22,SW,221,0.0,5.0,65,0.00,,---,0.00,VWS V14.01,2013-04-25 05:55:00,
2013-04-25 01:10:00,45.3,34.6,30.22,SSW,192,2.0,5.0,66,0.00,,---,0.00,VWS V14.01,2013-04-25 06:10:00,
2013-04-25 01:25:00,45.1,34.4,30.22,SSW,192,2.0,3.0,66,0.00,,---,0.00,VWS V14.01,2013-04-25 06:25:00,
2013-04-25 01:40:00,44.9,34.6,30.22,SW,222,2.0,5.0,67,0.00,,---,0.00,VWS V14.01,2013-04-25 06:40:00,
2013-04-25 01:55:00,44.4,34.1,30.22,SW,222,0.0,3.0,67,0.00,,---,0.00,VWS V14.01,2013-04-25 06:55:00,
2013-04-25 02:10:00,43.4,33.9,30.22,SW,222,0.0,1.0,69,0.00,,---,0.00,VWS V14.01,2013-04-25 07:10:00,
2013-04-25 02:25:00,43.0,33.9,30.22,SW,222,0.0,3.0,70,0.00,,---,0.00,VWS V14.01,2013-04-25 07:25:00,
2013-04-25 02:40:00,42.8,33.7,30.22,SW,222,0.0,2.0,70,0.00,,---,0.00,VWS V14.01,2013-04-25 07:40:00,
2013-04-25 02:55:00,41.9,33.5,30.22,SW,222,0.0,2.0,72,0.00,,---,0.00,VWS V14.01,2013-04-25 07:55:00,
2013-04-25 03:10:00,41.4,33.4,30.22,SW,222,0.0,2.0,73,0.00,,---,0.00,VWS V14.01,2013-04-25 08:10:00,
2013-04-25 03:25:00,41.5,33.5,30.22,SW,222,0.0,2.0,73,0.00,,---,0.00,VWS V14.01,2013-04-25 08:25:00,
2013-04-25 03:40:00,41.6,34.3,30.22,SW,222,0.0,2.0,75,0.00,,---,0.00,VWS V14.01,2013-04-25 08:40:00,
2013-04-25 03:55:00,39.8,32.5,30.23,SW,222,0.0,0.0,75,0.00,,---,0.00,VWS V14.01,2013-04-25 08:55:00,
2013-04-25 04:10:00,38.6,32.7,30.23,SW,222,0.0,0.0,79,0.00,,---,0.00,VWS V14.01,2013-04-25 09:10:00,
2013-04-25 04:25:00,38.4,33.1,30.23,SW,222,2.0,3.0,81,0.00,,---,0.00,VWS V14.01,2013-04-25 09:25:00,
2013-04-25 04:40:00,39.2,33.9,30.23,SW,222,1.0,2.0,81,0.00,,---,0.00,VWS V14.01,2013-04-25 09:40:00,
2013-04-25 04:55:00,39.8,33.8,30.23,SW,222,0.0,3.0,79,0.00,,---,0.00,VWS V14.01,2013-04-25 09:55:00,
2013-04-25 05:10:00,40.3,34.0,30.23,SW,222,0.0,0.0,78,0.00,,---,0.00,VWS V14.01,2013-04-25 10:10:00,
2013-04-25 05:25:00,40.1,33.8,30.23,SW,222,1.0,1.0,78,0.00,,---,0.00,VWS V14.01,2013-04-25 10:25:00,
2013-04-25 05:40:00,39.3,33.3,30.23,SW,222,2.0,4.0,79,0.00,,---,0.00,VWS V14.01,2013-04-25 10:40:00,
2013-04-25 05:55:00,38.8,33.2,30.24,SW,222,2.0,3.0,80,0.00,,---,0.00,VWS V14.01,2013-04-25 10:55:00,
2013-04-25 06:10:00,38.3,33.3,30.24,SW,222,2.0,3.0,82,0.00,,---,0.00,VWS V14.01,2013-04-25 11:10:00,
2013-04-25 06:25:00,38.3,33.0,30.24,SW,222,1.0,3.0,81,0.00,,---,0.00,VWS V14.01,2013-04-25 11:25:00,
2013-04-25 06:40:00,38.2,32.9,30.25,SW,222,0.0,4.0,81,0.00,,---,0.00,VWS V14.01,2013-04-25 11:40:00,
2013-04-25 06:55:00,37.9,32.9,30.26,SW,222,2.0,3.0,82,0.00,,---,0.00,VWS V14.01,2013-04-25 11:55:00,
2013-04-25 07:10:00,38.4,33.4,30.26,SW,222,3.0,4.0,82,0.00,,---,0.00,VWS V14.01,2013-04-25 12:10:00,
2013-04-25 07:25:00,38.2,33.2,30.26,SW,222,0.0,4.0,82,0.00,,---,0.00,VWS V14.01,2013-04-25 12:25:00,
2013-04-25 07:40:00,38.6,33.9,30.27,SW,222,2.0,4.0,83,0.00,,---,0.00,VWS V14.01,2013-04-25 12:40:00,
2013-04-25 07:55:00,40.1,35.1,30.27,SW,222,1.0,6.0,82,0.00,,---,0.00,VWS V14.01,2013-04-25 12:55:00,
2013-04-25 08:10:00,41.8,36.4,30.28,SSW,201,5.0,6.0,81,0.00,,---,0.00,VWS V14.01,2013-04-25 13:10:00,
2013-04-25 08:25:00,43.0,37.3,30.27,SSW,194,1.0,6.0,80,0.00,,---,0.00,VWS V14.01,2013-04-25 13:25:00,
2013-04-25 08:40:00,44.9,38.5,30.27,SSW,194,4.0,6.0,78,0.00,,---,0.00,VWS V14.01,2013-04-25 13:40:00,
2013-04-25 08:55:00,47.1,39.2,30.28,SSW,194,1.0,5.0,74,0.00,,---,0.00,VWS V14.01,2013-04-25 13:55:00,
2013-04-25 09:10:00,49.0,39.7,30.28,SSW,192,1.0,5.0,70,0.00,,---,0.00,VWS V14.01,2013-04-25 14:10:00,
2013-04-25 09:25:00,50.5,37.6,30.27,South,184,1.0,6.0,61,0.00,,---,0.00,VWS V14.01,2013-04-25 14:25:00,
2013-04-25 09:40:00,51.7,36.5,30.27,South,173,7.0,7.0,56,0.00,,---,0.00,VWS V14.01,2013-04-25 14:40:00,
2013-04-25 09:55:00,52.6,37.4,30.27,South,178,5.0,8.0,56,0.00,,---,0.00,VWS V14.01,2013-04-25 14:55:00,
2013-04-25 10:10:00,53.3,36.6,30.27,South,184,2.0,6.0,53,0.00,,---,0.00,VWS V14.01,2013-04-25 15:10:00,
2013-04-25 10:25:00,54.6,37.3,30.27,SW,224,3.0,5.0,52,0.00,,---,0.00,VWS V14.01,2013-04-25 15:25:00,
2013-04-25 10:40:00,55.5,35.1,30.27,West,274,2.0,8.0,46,0.00,,---,0.00,VWS V14.01,2013-04-25 15:40:00,
2013-04-25 10:55:00,55.9,34.9,30.27,SW,223,1.0,9.0,45,0.00,,---,0.00,VWS V14.01,2013-04-25 15:55:00,
2013-04-25 11:10:00,56.7,32.7,30.27,West,281,1.0,7.0,40,0.00,,---,0.00,VWS V14.01,2013-04-25 16:10:00,
2013-04-25 11:25:00,57.2,33.1,30.27,WNW,289,0.0,7.0,40,0.00,,---,0.00,VWS V14.01,2013-04-25 16:25:00,
2013-04-25 11:40:00,58.0,35.7,30.27,WSW,254,3.0,7.0,43,0.00,,---,0.00,VWS V14.01,2013-04-25 16:40:00,
2013-04-25 11:55:00,58.1,34.5,30.27,SW,232,3.0,7.0,41,0.00,,---,0.00,VWS V14.01,2013-04-25 16:55:00,
2013-04-25 12:10:00,59.4,35.7,30.26,West,271,2.0,7.0,41,0.00,,---,0.00,VWS V14.01,2013-04-25 17:10:00,
2013-04-25 12:25:00,59.3,33.7,30.26,WNW,298,2.0,8.0,38,0.00,,---,0.00,VWS V14.01,2013-04-25 17:25:00,
2013-04-25 12:40:00,59.8,35.5,30.26,SW,226,2.0,8.0,40,0.00,,---,0.00,VWS V14.01,2013-04-25 17:40:00,
2013-04-25 12:55:00,60.3,33.3,30.25,SSW,205,3.0,10.0,36,0.00,,---,0.00,VWS V14.01,2013-04-25 17:55:00,
2013-04-25 13:10:00,60.7,35.6,30.25,SW,220,5.0,8.0,39,0.00,,---,0.00,VWS V14.01,2013-04-25 18:10:00,
2013-04-25 13:25:00,61.0,34.6,30.24,South,176,4.0,10.0,37,0.00,,---,0.00,VWS V14.01,2013-04-25 18:25:00,
2013-04-25 13:40:00,62.0,36.1,30.24,South,178,7.0,12.0,38,0.00,,---,0.00,VWS V14.01,2013-04-25 18:40:00,
2013-04-25 13:55:00,62.8,36.2,30.23,SSW,205,5.0,10.0,37,0.00,,---,0.00,VWS V14.01,2013-04-25 18:55:00,
2013-04-25 14:10:00,63.0,35.7,30.22,SE,146,6.0,12.0,36,0.00,,---,0.00,VWS V14.01,2013-04-25 19:10:00,
2013-04-25 14:25:00,63.7,38.3,30.21,South,190,3.0,13.0,39,0.00,,---,0.00,VWS V14.01,2013-04-25 19:25:00,
2013-04-25 14:40:00,64.5,39.0,30.20,South,172,6.0,12.0,39,0.00,,---,0.00,VWS V14.01,2013-04-25 19:40:00,
2013-04-25 14:55:00,64.7,37.8,30.20,South,170,2.0,15.0,37,0.00,,---,0.00,VWS V14.01,2013-04-25 19:55:00,
2013-04-25 15:10:00,65.7,38.7,30.19,South,174,6.0,14.0,37,0.00,,---,0.00,VWS V14.01,2013-04-25 20:10:00,
2013-04-25 15:25:00,65.8,38.1,30.18,SSE,155,7.0,12.0,36,0.00,,---,0.00,VWS V14.01,2013-04-25 20:25:00,
2013-04-25 15:40:00,66.1,39.1,30.17,South,190,5.0,12.0,37,0.00,,---,0.00,VWS V14.01,2013-04-25 20:40:00,
2013-04-25 15:55:00,66.5,39.5,30.17,SSE,167,6.0,12.0,37,0.00,,---,0.00,VWS V14.01,2013-04-25 20:55:00,
2013-04-25 16:10:00,66.8,39.0,30.17,SW,226,8.0,14.0,36,0.00,,---,0.00,VWS V14.01,2013-04-25 21:10:00,
2013-04-25 16:25:00,67.1,38.6,30.16,South,188,7.0,14.0,35,0.00,,---,0.00,VWS V14.01,2013-04-25 21:25:00,
2013-04-25 16:40:00,66.9,37.7,30.15,South,182,2.0,13.0,34,0.00,,---,0.00,VWS V14.01,2013-04-25 21:40:00,
2013-04-25 16:55:00,67.3,39.5,30.15,SW,223,11.0,14.0,36,0.00,,---,0.00,VWS V14.01,2013-04-25 21:55:00,
2013-04-25 17:10:00,66.9,39.8,30.14,SSW,193,9.0,16.0,37,0.00,,---,0.00,VWS V14.01,2013-04-25 22:10:00,
2013-04-25 17:25:00,67.0,39.9,30.14,SSW,203,8.0,15.0,37,0.00,,---,0.00,VWS V14.01,2013-04-25 22:25:00,
2013-04-25 17:40:00,66.7,39.6,30.14,SSE,162,5.0,14.0,37,0.00,,---,0.00,VWS V14.01,2013-04-25 22:40:00,
2013-04-25 17:55:00,66.2,40.5,30.14,South,189,7.0,13.0,39,0.00,,---,0.00,VWS V14.01,2013-04-25 22:55:00,
2013-04-25 18:10:00,65.7,40.7,30.13,SSW,196,6.0,15.0,40,0.00,,---,0.00,VWS V14.01,2013-04-25 23:10:00,
2013-04-25 18:25:00,65.3,39.7,30.13,SSW,201,9.0,11.0,39,0.00,,---,0.00,VWS V14.01,2013-04-25 23:25:00,
2013-04-25 18:40:00,64.9,41.3,30.12,South,179,4.0,10.0,42,0.00,,---,0.00,VWS V14.01,2013-04-25 23:40:00,
2013-04-25 18:55:00,64.3,41.9,30.11,SSE,165,4.0,9.0,44,0.00,,---,0.00,VWS V14.01,2013-04-25 23:55:00,
2013-04-25 19:10:00,63.6,42.5,30.11,SSE,165,4.0,10.0,46,0.00,,---,0.00,VWS V14.01,2013-04-26 00:10:00,
2013-04-25 19:25:00,62.7,41.6,30.10,SSE,160,0.0,7.0,46,0.00,,---,0.00,VWS V14.01,2013-04-26 00:25:00,
2013-04-25 19:40:00,62.1,42.2,30.10,SSE,153,2.0,8.0,48,0.00,,---,0.00,VWS V14.01,2013-04-26 00:40:00,
2013-04-25 19:55:00,61.0,41.7,30.10,South,179,5.0,8.0,49,0.00,,---,0.00,VWS V14.01,2013-04-26 00:55:00,
2013-04-25 20:10:00,60.4,41.7,30.10,South,170,4.0,9.0,50,0.00,,---,0.00,VWS V14.01,2013-04-26 01:10:00,
2013-04-25 20:25:00,59.9,41.2,30.10,South,178,4.0,8.0,50,0.00,,---,0.00,VWS V14.01,2013-04-26 01:25:00,
2013-04-25 20:40:00,60.3,41.1,30.10,SSE,156,7.0,12.0,49,0.00,,---,0.00,VWS V14.01,2013-04-26 01:40:00,
2013-04-25 20:55:00,59.9,41.2,30.10,South,174,7.0,11.0,50,0.00,,---,0.00,VWS V14.01,2013-04-26 01:55:00,
2013-04-25 21:10:00,59.3,41.2,30.11,SSE,163,2.0,11.0,51,0.00,,---,0.00,VWS V14.01,2013-04-26 02:10:00,
2013-04-25 21:25:00,58.7,41.1,30.11,SSE,152,4.0,10.0,52,0.00,,---,0.00,VWS V14.01,2013-04-26 02:25:00,
2013-04-25 21:40:00,58.6,40.5,30.11,SSE,160,5.0,8.0,51,0.00,,---,0.00,VWS V14.01,2013-04-26 02:40:00,
2013-04-25 21:55:00,58.5,41.0,30.12,SSE,153,2.0,8.0,52,0.00,,---,0.00,VWS V14.01,2013-04-26 02:55:00,
2013-04-25 22:10:00,58.2,41.7,30.12,SE,146,5.0,9.0,54,0.00,,---,0.00,VWS V14.01,2013-04-26 03:10:00,
2013-04-25 22:25:00,58.1,41.6,30.12,SSE,153,5.0,10.0,54,0.00,,---,0.00,VWS V14.01,2013-04-26 03:25:00,
2013-04-25 22:40:00,58.7,41.6,30.12,South,169,5.0,12.0,53,0.00,,---,0.00,VWS V14.01,2013-04-26 03:40:00,
2013-04-25 22:55:00,58.3,42.2,30.11,SE,135,4.0,11.0,55,0.00,,---,0.00,VWS V14.01,2013-04-26 03:55:00,
2013-04-25 23:10:00,58.2,42.1,30.11,SE,132,2.0,9.0,55,0.00,,---,0.00,VWS V14.01,2013-04-26 04:10:00,
2013-04-25 23:25:00,58.1,42.0,30.11,SE,134,4.0,9.0,55,0.00,,---,0.00,VWS V14.01,2013-04-26 04:25:00,
2013-04-25 23:40:00,57.8,42.2,30.11,SSE,150,6.0,8.0,56,0.00,,---,0.00,VWS V14.01,2013-04-26 04:40:00,
2013-04-25 23:55:00,57.2,42.1,30.11,SE,144,5.0,8.0,57,0.00,,---,0.00,VWS V14.01,2013-04-26 04:55:00,